Time;durP1;ratioP1;P1;durP2;ratioP2;P2;SDS_P1;SDS_P2;PMS_P1;PMS_P2;Temp;Humidity;BMP_temperature;BMP_pressure;BME280_temperature;BME280_humidity;BME280_pressure;Samples;Min_cycle;Max_cycle;Signal;HPM_P1;HPM_P2
2024/01/20 00:01:52;;;;;;;;;;;;;;;;;;52964;1255;1005313;-80
2024/01/20 00:04:18;;;;;;;;;;;;;;;;;;52955;1253;1045925;-80
2024/01/20 00:06:45;;;;;;;;;;;;;;;;;;52973;1253;1005330;-78
2024/01/20 00:09:11;;;;;;;;;;;;;;;;;;52969;1253;1061459;-78
2024/01/20 00:11:38;;;;;;;;;;;;;;;;;;52997;1251;1004722;-80
2024/01/20 00:14:04;;;;;;;;;;;;;;;;;;53008;1251;1057252;-80
2024/01/20 00:16:31;;;;;;;;;;;;;;;;;;52982;1255;1005476;-80
2024/01/20 00:18:57;;;;;;;;;;;;;;;;;;53042;1253;1057608;-79
2024/01/20 00:21:24;;;;;;;;;;;;;;;;;;53056;1253;1005148;-79
2024/01/20 00:23:50;;;;;;;;;;;;;;;;;;53021;1252;1038449;-80
2024/01/20 00:26:17;;;;;;;;;;;;;;;;;;52974;1254;1006001;-79
2024/01/20 00:28:44;;;;;;;;;;;;;;;;;;53036;1251;1046227;-80
2024/01/20 00:31:10;;;;;;;;;;;;;;;;;;53051;1253;1005322;-79
2024/01/20 00:33:37;;;;;;;;;;;;;;;;;;53017;1251;1061323;-81
2024/01/20 00:36:03;;;;;;;;;;;;;;;;;;53040;1253;1005311;-80
2024/01/20 00:38:30;;;;;;;;;;;;;;;;;;53005;1253;1056807;-79
2024/01/20 00:40:57;;;;;;;;;;;;;;;;;;53021;1253;1005174;-78
2024/01/20 00:43:24;;;;;;;;;;;;;;;;;;52998;1256;1057646;-79
2024/01/20 00:45:50;;;;;;;;;;;;;;;;;;53006;1253;1005455;-80
2024/01/20 00:48:17;;;;;;;;;;;;;;;;;;53026;1253;1038721;-80
2024/01/20 00:50:43;;;;;;;;;;;;;;;;;;52908;1255;1004988;-80
2024/01/20 00:53:10;;;;;;;;;;;;;;;;;;52936;1253;1045652;-80
2024/01/20 00:55:36;;;;;;;;;;;;;;;;;;53045;1253;1004701;-80
2024/01/20 00:58:03;;;;;;;;;;;;;;;;;;52972;1254;1060885;-80
2024/01/20 01:00:29;;;;;;;;;;;;;;;;;;52965;1253;1004888;-80
2024/01/20 01:02:56;;;;;;;;;;;;;;;;;;52963;1255;1057331;-79
2024/01/20 01:05:22;;;;;;;;;;;;;;;;;;52907;1253;1004680;-79
2024/01/20 01:07:49;;;;;;;;;;;;;;;;;;52940;1254;1058452;-79
2024/01/20 01:10:16;;;;;;;;;;;;;;;;;;52937;1253;1005224;-78
2024/01/20 01:12:42;;;;;;;;;;;;;;;;;;52960;1253;1037961;-80
2024/01/20 01:15:09;;;;;;;;;;;;;;;;;;52944;1253;1003765;-80
2024/01/20 01:17:36;;;;;;;;;;;;;;;;;;53012;1254;1045344;-79
2024/01/20 01:20:03;;;;;;;;;;;;;;;;;;53268;1252;1005776;-79
2024/01/20 01:22:29;;;;;;;;;;;;;;;;;;52975;1255;1062125;-79
2024/01/20 01:24:56;;;;;;;;;;;;;;;;;;53031;1255;1005174;-80
2024/01/20 01:27:22;;;;;;;;;;;;;;;;;;53021;1251;1056191;-80
2024/01/20 01:29:49;;;;;;;;;;;;;;;;;;53019;1251;1005477;-80
2024/01/20 01:32:15;;;;;;;;;;;;;;;;;;52985;1250;1058129;-80
2024/01/20 01:34:42;;;;;;;;;;;;;;;;;;52996;1256;1005406;-80
2024/01/20 01:37:09;;;;;;;;;;;;;;;;;;53008;1252;1038100;-79
2024/01/20 01:39:35;;;;;;;;;;;;;;;;;;52975;1255;1005313;-79
2024/01/20 01:42:02;;;;;;;;;;;;;;;;;;53009;1251;1045351;-80
2024/01/20 01:44:28;;;;;;;;;;;;;;;;;;53012;1251;1005287;-80
2024/01/20 01:46:55;;;;;;;;;;;;;;;;;;53037;1251;1060920;-80
2024/01/20 01:49:21;;;;;;;;;;;;;;;;;;52990;1252;1004804;-80
2024/01/20 01:51:48;;;;;;;;;;;;;;;;;;52985;1253;1057071;-80
2024/01/20 01:54:14;;;;;;;;;;;;;;;;;;53017;1253;1004882;-78
2024/01/20 01:56:41;;;;;;;;;;;;;;;;;;52950;1253;1057649;-79
2024/01/20 02:01:52;;;;;;;;;;;;;;;;;;52978;1253;1038263;-78
2024/01/20 02:04:19;;;;;;;;;;;;;;;;;;52941;1255;1005009;-80
2024/01/20 02:09:31;;;;;;;;;;;;;;;;;;52932;1253;1046064;-79
2024/01/20 02:11:58;;;;;;;;;;;;;;;;;;52954;1254;1005523;-80
2024/01/20 02:14:24;;;;;;;;;;;;;;;;;;53068;1256;1061526;-79
2024/01/20 02:16:51;;;;;;;;;;;;;;;;;;53018;1255;1003645;-80
2024/01/20 02:19:18;;;;;;;;;;;;;;;;;;53037;1251;1056942;-80
2024/01/20 02:21:44;;;;;;;;;;;;;;;;;;53039;1251;1005532;-79
2024/01/20 02:24:12;;;;;;;;;;;;;;;;;;52991;1251;1058087;-78
2024/01/20 02:26:38;;;;;;;;;;;;;;;;;;53029;1251;1004729;-79
2024/01/20 02:29:05;;;;;;;;;;;;;;;;;;52929;1256;1038251;-79
2024/01/20 02:31:31;;;;;;;;;;;;;;;;;;53017;1252;1004633;-80
2024/01/20 02:33:58;;;;;;;;;;;;;;;;;;52998;1251;1047116;-79
2024/01/20 02:36:24;;;;;;;;;;;;;;;;;;53026;1251;1005462;-78
2024/01/20 02:38:51;;;;;;;;;;;;;;;;;;52957;1250;1061475;-80
2024/01/20 02:41:18;;;;;;;;;;;;;;;;;;53044;1251;1004921;-81
2024/01/20 02:43:45;;;;;;;;;;;;;;;;;;53041;1254;1057669;-79
2024/01/20 02:46:11;;;;;;;;;;;;;;;;;;53010;1255;1005499;-80
2024/01/20 02:48:37;;;;;;;;;;;;;;;;;;52967;1253;1057500;-79
2024/01/20 02:51:04;;;;;;;;;;;;;;;;;;53014;1255;1004631;-80
2024/01/20 02:53:31;;;;;;;;;;;;;;;;;;52999;1254;1038789;-80
2024/01/20 02:55:57;;;;;;;;;;;;;;;;;;52904;1255;1005519;-80
2024/01/20 02:58:24;;;;;;;;;;;;;;;;;;52991;1256;1044907;-80
2024/01/20 03:00:50;;;;;;;;;;;;;;;;;;53011;1256;1004776;-81
2024/01/20 03:03:17;;;;;;;;;;;;;;;;;;52977;1255;1061015;-80
2024/01/20 03:05:44;;;;;;;;;;;;;;;;;;52962;1251;1005135;-79
2024/01/20 03:08:10;;;;;;;;;;;;;;;;;;52976;1254;1056239;-79
2024/01/20 03:10:37;;;;;;;;;;;;;;;;;;52969;1251;1003819;-79
2024/01/20 03:13:03;;;;;;;;;;;;;;;;;;52921;1256;1058381;-80
2024/01/20 03:15:30;;;;;;;;;;;;;;;;;;53057;1255;1004995;-80
2024/01/20 03:17:57;;;;;;;;;;;;;;;;;;52999;1251;1038095;-78
2024/01/20 03:20:23;;;;;;;;;;;;;;;;;;52962;1251;1005400;-81
2024/01/20 03:22:50;;;;;;;;;;;;;;;;;;53076;1254;1046162;-79
2024/01/20 03:25:16;;;;;;;;;;;;;;;;;;53133;1251;1005017;-79
2024/01/20 03:27:43;;;;;;;;;;;;;;;;;;53063;1251;1061279;-79
2024/01/20 03:30:10;;;;;;;;;;;;;;;;;;52979;1251;1003762;-79
2024/01/20 03:32:36;;;;;;;;;;;;;;;;;;53025;1251;1055949;-79
2024/01/20 03:35:04;;;;;;;;;;;;;;;;;;53040;1251;1004666;-79
2024/01/20 03:37:31;;;;;;;;;;;;;;;;;;53037;1257;1057290;-80
2024/01/20 03:39:57;;;;;;;;;;;;;;;;;;52947;1251;1005550;-79
2024/01/20 03:42:24;;;;;;;;;;;;;;;;;;52945;1254;1039471;-80
2024/01/20 03:44:50;;;;;;;;;;;;;;;;;;53050;1254;1005574;-78
2024/01/20 03:47:17;;;;;;;;;;;;;;;;;;52969;1251;1045033;-79
2024/01/20 03:49:43;;;;;;;;;;;;;;;;;;52987;1255;1005594;-80
2024/01/20 03:52:10;;;;;;;;;;;;;;;;;;52942;1251;1061807;-79
2024/01/20 03:54:36;;;;;;;;;;;;;;;;;;53025;1256;1005546;-80
2024/01/20 03:57:03;;;;;;;;;;;;;;;;;;52937;1251;1057485;-79
2024/01/20 03:59:29;;;;;;;;;;;;;;;;;;52961;1251;1005666;-80
2024/01/20 04:01:56;;;;;;;;;;;;;;;;;;52963;1257;1058070;-78
2024/01/20 04:04:22;;;;;;;;;;;;;;;;;;53018;1255;1004789;-79
2024/01/20 04:06:49;;;;;;;;;;;;;;;;;;52941;1257;1038829;-78
2024/01/20 04:09:15;;;;;;;;;;;;;;;;;;52928;1255;1005438;-79
2024/01/20 04:11:42;;;;;;;;;;;;;;;;;;52999;1254;1044999;-80
2024/01/20 04:14:09;;;;;;;;;;;;;;;;;;53022;1251;1004977;-78
2024/01/20 04:16:35;;;;;;;;;;;;;;;;;;52999;1251;1061349;-80
2024/01/20 04:19:02;;;;;;;;;;;;;;;;;;53031;1251;1004989;-80
2024/01/20 04:21:29;;;;;;;;;;;;;;;;;;53035;1254;1057015;-78
2024/01/20 04:23:55;;;;;;;;;;;;;;;;;;53012;1251;1005046;-79
2024/01/20 04:26:22;;;;;;;;;;;;;;;;;;52985;1254;1058662;-79
2024/01/20 04:28:48;;;;;;;;;;;;;;;;;;53045;1254;1005538;-80
2024/01/20 04:31:15;;;;;;;;;;;;;;;;;;53059;1251;1039109;-80
2024/01/20 04:33:41;;;;;;;;;;;;;;;;;;53010;1254;1005189;-78
2024/01/20 04:36:09;;;;;;;;;;;;;;;;;;52975;1251;1045317;-80
2024/01/20 04:38:36;;;;;;;;;;;;;;;;;;52997;1251;1005011;-80
2024/01/20 04:41:03;;;;;;;;;;;;;;;;;;53023;1251;1061409;-79
2024/01/20 04:43:29;;;;;;;;;;;;;;;;;;52987;1251;1005496;-78
2024/01/20 04:45:56;;;;;;;;;;;;;;;;;;53005;1251;1057460;-80
2024/01/20 04:48:23;;;;;;;;;;;;;;;;;;53019;1256;1004782;-79
2024/01/20 04:50:49;;;;;;;;;;;;;;;;;;52994;1251;1058226;-79
2024/01/20 04:53:16;;;;;;;;;;;;;;;;;;52986;1254;1005555;-80
2024/01/20 04:55:43;;;;;;;;;;;;;;;;;;52978;1254;1038025;-80
2024/01/20 04:58:09;;;;;;;;;;;;;;;;;;53016;1251;1005481;-80
2024/01/20 05:00:36;;;;;;;;;;;;;;;;;;53031;1251;1046231;-80
2024/01/20 05:03:02;;;;;;;;;;;;;;;;;;53087;1251;1005243;-78
2024/01/20 05:05:29;;;;;;;;;;;;;;;;;;53091;1251;1061453;-79
2024/01/20 05:07:55;;;;;;;;;;;;;;;;;;52985;1251;1005112;-80
2024/01/20 05:10:22;;;;;;;;;;;;;;;;;;53011;1254;1056188;-79
2024/01/20 05:12:49;;;;;;;;;;;;;;;;;;53051;1251;1005198;-78
2024/01/20 05:15:15;;;;;;;;;;;;;;;;;;53053;1251;1057805;-79
2024/01/20 05:17:42;;;;;;;;;;;;;;;;;;52979;1251;1005397;-79
2024/01/20 05:20:08;;;;;;;;;;;;;;;;;;53024;1251;1038385;-80
2024/01/20 05:22:35;;;;;;;;;;;;;;;;;;53049;1251;1004889;-78
2024/01/20 05:25:03;;;;;;;;;;;;;;;;;;52993;1251;1046859;-79
2024/01/20 05:27:30;;;;;;;;;;;;;;;;;;52996;1254;1005157;-80
2024/01/20 05:29:57;;;;;;;;;;;;;;;;;;53043;1251;1005633;-80
2024/01/20 05:32:23;;;;;;;;;;;;;;;;;;53030;1251;1061546;-80
2024/01/20 05:34:50;;;;;;;;;;;;;;;;;;52987;1251;1005238;-79
2024/01/20 05:37:16;;;;;;;;;;;;;;;;;;53012;1251;1055979;-80
2024/01/20 05:39:43;;;;;;;;;;;;;;;;;;53029;1251;1005357;-78
2024/01/20 05:42:09;;;;;;;;;;;;;;;;;;52961;1254;1058948;-78
2024/01/20 05:44:36;;;;;;;;;;;;;;;;;;52998;1254;1005138;-79
2024/01/20 05:47:02;;;;;;;;;;;;;;;;;;53060;1254;1038596;-78
2024/01/20 05:49:29;;;;;;;;;;;;;;;;;;53001;1251;1005503;-79
2024/01/20 05:51:56;;;;;;;;;;;;;;;;;;52949;1251;1045485;-78
2024/01/20 05:54:22;;;;;;;;;;;;;;;;;;52985;1251;1005280;-80
2024/01/20 05:56:49;;;;;;;;;;;;;;;;;;53015;1251;1061193;-79
2024/01/20 05:59:15;;;;;;;;;;;;;;;;;;53015;1251;1005515;-79
2024/01/20 06:01:42;;;;;;;;;;;;;;;;;;52989;1251;1056935;-80
2024/01/20 06:04:08;;;;;;;;;;;;;;;;;;52970;1251;1005334;-79
2024/01/20 06:06:35;;;;;;;;;;;;;;;;;;52980;1252;1058169;-81
2024/01/20 06:09:02;;;;;;;;;;;;;;;;;;52995;1254;1004064;-78
2024/01/20 06:11:29;;;;;;;;;;;;;;;;;;52998;1251;1038226;-80
2024/01/20 06:13:55;;;;;;;;;;;;;;;;;;53046;1254;1003650;-80
2024/01/20 06:16:22;;;;;;;;;;;;;;;;;;52937;1251;1045146;-79
2024/01/20 06:18:49;;;;;;;;;;;;;;;;;;53019;1251;1005599;-79
2024/01/20 06:21:15;;;;;;;;;;;;;;;;;;53058;1251;1061495;-79
2024/01/20 06:23:42;;;;;;;;;;;;;;;;;;53033;1251;1005544;-80
2024/01/20 06:26:08;;;;;;;;;;;;;;;;;;52985;1251;1057265;-80
2024/01/20 06:28:35;;;;;;;;;;;;;;;;;;53077;1251;1005170;-78
2024/01/20 06:31:02;;;;;;;;;;;;;;;;;;52980;1254;1059053;-80
2024/01/20 06:33:29;;;;;;;;;;;;;;;;;;53053;1251;1005413;-79
2024/01/20 06:35:56;;;;;;;;;;;;;;;;;;52805;1251;1182709;-80
2024/01/20 06:38:22;;;;;;;;;;;;;;;;;;52976;1251;1004811;-80
2024/01/20 06:40:49;;;;;;;;;;;;;;;;;;53049;1251;1045106;-78
2024/01/20 06:43:16;;;;;;;;;;;;;;;;;;52988;1251;1003714;-80
2024/01/20 06:45:42;;;;;;;;;;;;;;;;;;52933;1251;1061751;-79
2024/01/20 06:48:09;;;;;;;;;;;;;;;;;;53023;1251;1005103;-79
2024/01/20 06:50:42;;;;;;;;;;;;;;;;;;52929;1251;1057477;-80
2024/01/20 06:53:10;;;;;;;;;;;;;;;;;;53043;1254;1056437;-80
2024/01/20 06:55:36;;;;;;;;;;;;;;;;;;52927;1254;1005582;-81
2024/01/20 06:58:03;;;;;;;;;;;;;;;;;;52987;1253;1058571;-79
2024/01/20 07:00:29;;;;;;;;;;;;;;;;;;52975;1253;1005336;-80
2024/01/20 07:02:56;;;;;;;;;;;;;;;;;;52954;1254;1039077;-80
2024/01/20 07:05:22;;;;;;;;;;;;;;;;;;54105;1255;1003294;-80
2024/01/20 07:07:49;;;;;;;;;;;;;;;;;;54169;1251;1045289;-79
2024/01/20 07:10:15;;;;;;;;;;;;;;;;;;54129;1252;1003447;-80
2024/01/20 07:12:42;;;;;;;;;;;;;;;;;;54172;1252;1060904;-81
2024/01/20 07:15:08;;;;;;;;;;;;;;;;;;54132;1254;1003363;-80
2024/01/20 07:17:35;;;;;;;;;;;;;;;;;;53949;1250;1056187;-80
2024/01/20 07:20:02;;;;;;;;;;;;;;;;;;53004;1251;1005177;-78
2024/01/20 07:22:29;;;;;;;;;;;;;;;;;;52934;1251;1057780;-79
2024/01/20 07:24:55;;;;;;;;;;;;;;;;;;53017;1253;1005576;-80
2024/01/20 07:27:22;;;;;;;;;;;;;;;;;;53024;1251;1038662;-80
2024/01/20 07:29:48;;;;;;;;;;;;;;;;;;52948;1251;1005618;-80
2024/01/20 07:32:15;;;;;;;;;;;;;;;;;;52975;1251;1046237;-78
2024/01/20 07:34:41;;;;;;;;;;;;;;;;;;53059;1251;1004930;-80
2024/01/20 07:37:08;;;;;;;;;;;;;;;;;;53067;1251;1061765;-81
2024/01/20 07:39:34;;;;;;;;;;;;;;;;;;53031;1251;1005656;-79
2024/01/20 07:42:01;;;;;;;;;;;;;;;;;;53582;1251;1058121;-79
2024/01/20 07:44:27;;;;;;;;;;;;;;;;;;54164;1251;1003548;-79
2024/01/20 07:46:54;;;;;;;;;;;;;;;;;;54184;1250;1058238;-81
2024/01/20 07:49:20;;;;;;;;;;;;;;;;;;54143;1250;1003188;-81
2024/01/20 07:51:47;;;;;;;;;;;;;;;;;;54127;1252;1038657;-79
2024/01/20 07:54:16;;;;;;;;;;;;;;;;;;54130;1253;1003299;-81
2024/01/20 07:56:42;;;;;;;;;;;;;;;;;;54160;1251;1045321;-79
2024/01/20 07:59:09;;;;;;;;;;;;;;;;;;54193;1251;1003408;-80
2024/01/20 08:01:35;;;;;;;;;;;;;;;;;;54175;1251;1060586;-79
2024/01/20 08:04:02;;;;;;;;;;;;;;;;;;54162;1251;1003288;-80
2024/01/20 08:06:29;;;;;;;;;;;;;;;;;;54202;1250;1056373;-81
2024/01/20 08:08:55;;;;;;;;;;;;;;;;;;54149;1251;1003410;-81
2024/01/20 08:11:22;;;;;;;;;;;;;;;;;;54134;1251;1058173;-81
2024/01/20 08:13:49;;;;;;;;;;;;;;;;;;54161;1251;1003394;-79
2024/01/20 08:16:15;;;;;;;;;;;;;;;;;;54156;1251;1038468;-80
2024/01/20 08:18:42;;;;;;;;;;;;;;;;;;54181;1251;1003388;-81
2024/01/20 08:21:08;;;;;;;;;;;;;;;;;;54168;1250;1045004;-81
2024/01/20 08:23:35;;;;;;;;;;;;;;;;;;54184;1251;1003468;-81
2024/01/20 08:26:03;;;;;;;;;;;;;;;;;;54150;1254;1060636;-81
2024/01/20 08:28:29;;;;;;;;;;;;;;;;;;54166;1251;1003237;-80
2024/01/20 08:30:56;;;;;;;;;;;;;;;;;;54193;1250;1056642;-79
2024/01/20 08:33:22;;;;;;;;;;;;;;;;;;53553;1251;1005405;-81
2024/01/20 08:35:50;;;;;;;;;;;;;;;;;;54158;1251;1057333;-79
2024/01/20 08:38:16;;;;;;;;;;;;;;;;;;54125;1251;1003258;-79
2024/01/20 08:40:43;;;;;;;;;;;;;;;;;;54153;1251;1038273;-79
2024/01/20 08:43:09;;;;;;;;;;;;;;;;;;54181;1251;1003281;-81
2024/01/20 08:45:36;;;;;;;;;;;;;;;;;;54161;1251;1045858;-78
2024/01/20 08:48:03;;;;;;;;;;;;;;;;;;54196;1251;1003182;-79
2024/01/20 08:50:29;;;;;;;;;;;;;;;;;;54171;1251;1060452;-80
2024/01/20 08:52:56;;;;;;;;;;;;;;;;;;54218;1250;1003324;-79
2024/01/20 08:55:22;;;;;;;;;;;;;;;;;;54167;1251;1057326;-81
2024/01/20 08:57:49;;;;;;;;;;;;;;;;;;54206;1250;1003601;-81
2024/01/20 09:00:16;;;;;;;;;;;;;;;;;;54134;1251;1058401;-79
2024/01/20 09:02:43;;;;;;;;;;;;;;;;;;54152;1250;1003266;-79
2024/01/20 09:05:10;;;;;;;;;;;;;;;;;;54147;1251;1038158;-81
2024/01/20 09:07:36;;;;;;;;;;;;;;;;;;54179;1251;1003303;-82
2024/01/20 09:10:03;;;;;;;;;;;;;;;;;;54173;1251;1046033;-81
2024/01/20 09:12:30;;;;;;;;;;;;;;;;;;54199;1251;1003242;-81
2024/01/20 09:14:56;;;;;;;;;;;;;;;;;;54152;1254;1061553;-81
2024/01/20 09:17:23;;;;;;;;;;;;;;;;;;54183;1250;1003229;-81
2024/01/20 09:19:49;;;;;;;;;;;;;;;;;;54007;1251;1057077;-80
2024/01/20 09:22:16;;;;;;;;;;;;;;;;;;52991;1253;1003986;-82
2024/01/20 09:24:43;;;;;;;;;;;;;;;;;;52978;1251;1057996;-79
2024/01/20 09:27:10;;;;;;;;;;;;;;;;;;52999;1251;1005581;-79
2024/01/20 09:29:36;;;;;;;;;;;;;;;;;;52943;1251;1038195;-79
2024/01/20 09:32:03;;;;;;;;;;;;;;;;;;52961;1251;1005022;-81
2024/01/20 09:34:29;;;;;;;;;;;;;;;;;;53032;1251;1045531;-79
2024/01/20 09:36:56;;;;;;;;;;;;;;;;;;52984;1251;1005499;-79
2024/01/20 09:39:23;;;;;;;;;;;;;;;;;;52960;1251;1061610;-81
2024/01/20 09:41:49;;;;;;;;;;;;;;;;;;53017;1251;1005200;-81
2024/01/20 09:44:16;;;;;;;;;;;;;;;;;;53005;1254;1057750;-81
2024/01/20 09:46:43;;;;;;;;;;;;;;;;;;52980;1255;1005057;-78
2024/01/20 09:49:10;;;;;;;;;;;;;;;;;;53045;1254;1058191;-81
2024/01/20 09:51:36;;;;;;;;;;;;;;;;;;52985;1250;1005513;-80
2024/01/20 09:54:03;;;;;;;;;;;;;;;;;;52969;1251;1038741;-79
2024/01/20 09:56:29;;;;;;;;;;;;;;;;;;52967;1254;1005401;-80
2024/01/20 09:58:56;;;;;;;;;;;;;;;;;;53010;1251;1045594;-79
2024/01/20 10:01:23;;;;;;;;;;;;;;;;;;52965;1251;1004991;-79
2024/01/20 10:03:49;;;;;;;;;;;;;;;;;;52995;1251;1061768;-80
2024/01/20 10:06:16;;;;;;;;;;;;;;;;;;52977;1251;1005321;-81
2024/01/20 10:08:42;;;;;;;;;;;;;;;;;;52984;1251;1057782;-80
2024/01/20 10:11:09;;;;;;;;;;;;;;;;;;52969;1251;1004961;-79
2024/01/20 10:13:36;;;;;;;;;;;;;;;;;;53048;1251;1057454;-81
2024/01/20 10:16:03;;;;;;;;;;;;;;;;;;52968;1251;1005186;-79
2024/01/20 10:18:30;;;;;;;;;;;;;;;;;;53022;1251;1039497;-81
2024/01/20 10:20:57;;;;;;;;;;;;;;;;;;53419;1251;1005126;-81
2024/01/20 10:23:23;;;;;;;;;;;;;;;;;;53280;1251;1046064;-81
2024/01/20 10:25:50;;;;;;;;;;;;;;;;;;53293;1251;1005215;-80
2024/01/20 10:28:16;;;;;;;;;;;;;;;;;;53227;1251;1061654;-82
2024/01/20 10:30:43;;;;;;;;;;;;;;;;;;53202;1251;1005546;-80
2024/01/20 10:33:10;;;;;;;;;;;;;;;;;;53021;1251;1057211;-81
2024/01/20 10:35:37;;;;;;;;;;;;;;;;;;52984;1251;1004602;-82
2024/01/20 10:38:04;;;;;;;;;;;;;;;;;;53066;1254;1058638;-80
2024/01/20 10:40:31;;;;;;;;;;;;;;;;;;53204;1252;1003720;-81
2024/01/20 10:42:57;;;;;;;;;;;;;;;;;;52988;1254;1039305;-80
2024/01/20 10:45:26;;;;;;;;;;;;;;;;;;54194;1250;1003365;-81
2024/01/20 10:47:53;;;;;;;;;;;;;;;;;;53734;1251;1046298;-80
2024/01/20 10:50:20;;;;;;;;;;;;;;;;;;53321;1251;1005013;-82
2024/01/20 10:52:46;;;;;;;;;;;;;;;;;;53210;1251;1061098;-82
2024/01/20 10:55:13;;;;;;;;;;;;;;;;;;53239;1251;1005603;-82
2024/01/20 10:57:39;;;;;;;;;;;;;;;;;;53283;1253;1057481;-82
2024/01/20 11:00:08;;;;;;;;;;;;;;;;;;53278;1251;1005521;-80
2024/01/20 11:02:35;;;;;;;;;;;;;;;;;;53263;1251;1057520;-80
2024/01/20 11:05:03;;;;;;;;;;;;;;;;;;53057;1251;1005049;-82
2024/01/20 11:07:30;;;;;;;;;;;;;;;;;;53003;1251;1039082;-80
2024/01/20 11:09:57;;;;;;;;;;;;;;;;;;53009;1251;1005505;-79
2024/01/20 11:12:23;;;;;;;;;;;;;;;;;;52999;1251;1048593;-80
2024/01/20 11:14:50;;;;;;;;;;;;;;;;;;53087;1250;1004974;-81
2024/01/20 11:17:17;;;;;;;;;;;;;;;;;;53062;1251;1062017;-80
2024/01/20 11:19:43;;;;;;;;;;;;;;;;;;53223;1250;1003585;-82
2024/01/20 11:22:10;;;;;;;;;;;;;;;;;;53259;1251;1056838;-80
2024/01/20 11:24:37;;;;;;;;;;;;;;;;;;53195;1250;1005560;-81
2024/01/20 11:27:04;;;;;;;;;;;;;;;;;;53306;1254;1058353;-82
2024/01/20 11:29:30;;;;;;;;;;;;;;;;;;53239;1251;1004964;-80
2024/01/20 11:31:57;;;;;;;;;;;;;;;;;;53313;1250;1038551;-82
2024/01/20 11:34:23;;;;;;;;;;;;;;;;;;54016;1250;1003400;-80
2024/01/20 11:36:51;;;;;;;;;;;;;;;;;;53576;1251;1045466;-82
2024/01/20 11:39:17;;;;;;;;;;;;;;;;;;53326;1254;1004957;-82
2024/01/20 11:41:45;;;;;;;;;;;;;;;;;;53245;1251;1062708;-82
2024/01/20 11:44:12;;;;;;;;;;;;;;;;;;53310;1251;1004980;-82
2024/01/20 11:46:38;;;;;;;;;;;;;;;;;;53337;1251;1056886;-82
2024/01/20 11:49:05;;;;;;;;;;;;;;;;;;53252;1251;1005461;-82
2024/01/20 11:51:32;;;;;;;;;;;;;;;;;;53238;1251;1057778;-80
2024/01/20 11:53:58;;;;;;;;;;;;;;;;;;53198;1251;1005589;-80
2024/01/20 11:56:25;;;;;;;;;;;;;;;;;;53218;1252;1038460;-80
2024/01/20 11:58:51;;;;;;;;;;;;;;;;;;53348;1251;1005088;-80
2024/01/20 12:01:18;;;;;;;;;;;;;;;;;;53328;1251;1046260;-80
2024/01/20 12:03:45;;;;;;;;;;;;;;;;;;53238;1251;1005587;-81
2024/01/20 12:06:11;;;;;;;;;;;;;;;;;;53257;1256;1061902;-82
2024/01/20 12:08:40;;;;;;;;;;;;;;;;;;53285;1254;1003787;-83
2024/01/20 12:11:07;;;;;;;;;;;;;;;;;;53302;1251;1057079;-82
2024/01/20 12:13:33;;;;;;;;;;;;;;;;;;53394;1251;1005110;-80
2024/01/20 12:16:00;;;;;;;;;;;;;;;;;;53248;1254;1057670;-82
2024/01/20 12:18:27;;;;;;;;;;;;;;;;;;53339;1252;1005416;-81
2024/01/20 12:20:53;;;;;;;;;;;;;;;;;;53325;1251;1038692;-80
2024/01/20 12:23:20;;;;;;;;;;;;;;;;;;53274;1251;1005397;-80
2024/01/20 12:25:47;;;;;;;;;;;;;;;;;;53246;1251;1045220;-82
2024/01/20 12:28:13;;;;;;;;;;;;;;;;;;53231;1253;1005441;-82
2024/01/20 12:30:40;;;;;;;;;;;;;;;;;;53254;1251;1060933;-81
2024/01/20 12:33:06;;;;;;;;;;;;;;;;;;53223;1251;1005444;-82
2024/01/20 12:35:33;;;;;;;;;;;;;;;;;;53221;1251;1056199;-80
2024/01/20 12:38:00;;;;;;;;;;;;;;;;;;53285;1251;1005440;-81
2024/01/20 12:40:27;;;;;;;;;;;;;;;;;;53269;1251;1058179;-80
2024/01/20 12:42:54;;;;;;;;;;;;;;;;;;53275;1253;1004958;-80
2024/01/20 12:45:20;;;;;;;;;;;;;;;;;;53298;1254;1038429;-82
2024/01/20 12:47:47;;;;;;;;;;;;;;;;;;53248;1250;1004984;-80
2024/01/20 12:50:13;;;;;;;;;;;;;;;;;;53213;1252;1046530;-81
2024/01/20 12:52:40;;;;;;;;;;;;;;;;;;53249;1253;1005427;-80
2024/01/20 12:55:07;;;;;;;;;;;;;;;;;;53224;1255;1061728;-80
2024/01/20 12:57:33;;;;;;;;;;;;;;;;;;53231;1252;1005492;-80
2024/01/20 13:00:01;;;;;;;;;;;;;;;;;;53229;1253;1057690;-82
2024/01/20 13:02:28;;;;;;;;;;;;;;;;;;53219;1253;1003718;-80
2024/01/20 13:04:54;;;;;;;;;;;;;;;;;;53167;1253;1057382;-80
2024/01/20 13:07:22;;;;;;;;;;;;;;;;;;53226;1251;1004955;-82
2024/01/20 13:09:48;;;;;;;;;;;;;;;;;;53281;1254;1039638;-81
2024/01/20 13:12:15;;;;;;;;;;;;;;;;;;53107;1251;1005568;-82
2024/01/20 13:14:41;;;;;;;;;;;;;;;;;;53037;1251;1045192;-80
2024/01/20 13:17:08;;;;;;;;;;;;;;;;;;53030;1251;1004688;-80
2024/01/20 13:19:35;;;;;;;;;;;;;;;;;;53017;1254;1061466;-80
2024/01/20 13:22:02;;;;;;;;;;;;;;;;;;52987;1251;1005075;-82
2024/01/20 13:24:28;;;;;;;;;;;;;;;;;;52995;1253;1056772;-82
2024/01/20 13:26:55;;;;;;;;;;;;;;;;;;53086;1251;1005276;-80
2024/01/20 13:29:21;;;;;;;;;;;;;;;;;;53027;1254;1057412;-81
2024/01/20 13:31:48;;;;;;;;;;;;;;;;;;53046;1251;1005247;-82
2024/01/20 13:34:15;;;;;;;;;;;;;;;;;;52958;1253;1037757;-82
2024/01/20 13:36:41;;;;;;;;;;;;;;;;;;53041;1253;1003631;-82
2024/01/20 13:39:08;;;;;;;;;;;;;;;;;;53077;1251;1045656;-82
2024/01/20 13:41:34;;;;;;;;;;;;;;;;;;53020;1251;1004975;-79
2024/01/20 13:44:01;;;;;;;;;;;;;;;;;;52973;1251;1060603;-81
2024/01/20 13:46:27;;;;;;;;;;;;;;;;;;52981;1251;1005006;-80
2024/01/20 13:48:54;;;;;;;;;;;;;;;;;;53008;1251;1057372;-80
2024/01/20 13:51:22;;;;;;;;;;;;;;;;;;53212;1251;1003920;-80
2024/01/20 13:53:48;;;;;;;;;;;;;;;;;;53153;1251;1057778;-80
2024/01/20 13:56:15;;;;;;;;;;;;;;;;;;53107;1251;1005064;-80
2024/01/20 13:58:42;;;;;;;;;;;;;;;;;;53175;1251;1038297;-81
2024/01/20 14:01:08;;;;;;;;;;;;;;;;;;52982;1255;1004716;-82
2024/01/20 14:03:35;;;;;;;;;;;;;;;;;;53020;1253;1046429;-81
2024/01/20 14:06:02;;;;;;;;;;;;;;;;;;52995;1253;1003693;-82
2024/01/20 14:08:29;;;;;;;;;;;;;;;;;;52988;1251;1061171;-82
2024/01/20 14:10:56;;;;;;;;;;;;;;;;;;53077;1254;1005254;-80
2024/01/20 14:13:22;;;;;;;;;;;;;;;;;;53069;1254;1057605;-81
2024/01/20 14:15:49;;;;;;;;;;;;;;;;;;52989;1251;1005472;-82
2024/01/20 14:18:16;;;;;;;;;;;;;;;;;;52809;1251;1058656;-82
2024/01/20 14:20:42;;;;;;;;;;;;;;;;;;52840;1252;1004839;-80
2024/01/20 14:23:09;;;;;;;;;;;;;;;;;;52806;1253;1039150;-80
2024/01/20 14:25:35;;;;;;;;;;;;;;;;;;53051;1251;1005609;-82
2024/01/20 14:28:03;;;;;;;;;;;;;;;;;;53078;1251;1046499;-80
2024/01/20 14:30:30;;;;;;;;;;;;;;;;;;53125;1251;1004738;-81
2024/01/20 14:32:56;;;;;;;;;;;;;;;;;;53046;1251;1061359;-80
2024/01/20 14:35:25;;;;;;;;;;;;;;;;;;53032;1251;1005008;-79
2024/01/20 14:37:52;;;;;;;;;;;;;;;;;;52818;1251;1057001;-82
2024/01/20 14:40:19;;;;;;;;;;;;;;;;;;52819;1250;1005431;-82
2024/01/20 14:42:45;;;;;;;;;;;;;;;;;;52816;1251;1058534;-80
2024/01/20 14:45:12;;;;;;;;;;;;;;;;;;52910;1254;1004865;-82
2024/01/20 14:47:39;;;;;;;;;;;;;;;;;;52881;1253;1037905;-80
2024/01/20 14:50:07;;;;;;;;;;;;;;;;;;52835;1251;1005232;-80
2024/01/20 14:52:33;;;;;;;;;;;;;;;;;;52796;1253;1045855;-81
2024/01/20 14:55:00;;;;;;;;;;;;;;;;;;52914;1250;1005455;-80
2024/01/20 14:57:27;;;;;;;;;;;;;;;;;;53087;1252;1061284;-82
2024/01/20 14:59:53;;;;;;;;;;;;;;;;;;52970;1252;1004786;-80
2024/01/20 15:02:20;;;;;;;;;;;;;;;;;;52990;1253;1056613;-81
2024/01/20 15:04:46;;;;;;;;;;;;;;;;;;53074;1252;1005431;-80
2024/01/20 15:07:13;;;;;;;;;;;;;;;;;;53097;1251;1058020;-82
2024/01/20 15:09:40;;;;;;;;;;;;;;;;;;52970;1252;1005403;-80
2024/01/20 15:12:07;;;;;;;;;;;;;;;;;;52910;1253;1038573;-82
2024/01/20 15:14:34;;;;;;;;;;;;;;;;;;52902;1255;1005131;-81
2024/01/20 15:17:01;;;;;;;;;;;;;;;;;;52879;1251;1045014;-81
2024/01/20 15:19:28;;;;;;;;;;;;;;;;;;52773;1253;1005244;-82
2024/01/20 15:21:54;;;;;;;;;;;;;;;;;;52930;1253;1060611;-82
2024/01/20 15:24:21;;;;;;;;;;;;;;;;;;52865;1252;1005345;-80
2024/01/20 15:26:47;;;;;;;;;;;;;;;;;;52740;1251;1058310;-80
2024/01/20 15:29:14;;;;;;;;;;;;;;;;;;52920;1252;1004978;-81
2024/01/20 15:31:40;;;;;;;;;;;;;;;;;;52878;1255;1058865;-82
2024/01/20 15:34:07;;;;;;;;;;;;;;;;;;52982;1253;1005261;-80
2024/01/20 15:36:50;;;;;;;;;;;;;;;;;;53100;1252;1038975;-82
2024/01/20 15:39:17;;;;;;;;;;;;;;;;;;52971;1252;1004585;-82
2024/01/20 15:41:45;;;;;;;;;;;;;;;;;;53038;1253;1045791;-80
2024/01/20 15:44:12;;;;;;;;;;;;;;;;;;53089;1251;1005736;-80
2024/01/20 15:46:39;;;;;;;;;;;;;;;;;;53097;1250;1060619;-81
2024/01/20 15:49:05;;;;;;;;;;;;;;;;;;52942;1250;1003865;-80
2024/01/20 15:51:32;;;;;;;;;;;;;;;;;;52922;1252;1056419;-80
2024/01/20 15:53:58;;;;;;;;;;;;;;;;;;53048;1252;1004809;-80
2024/01/20 15:56:25;;;;;;;;;;;;;;;;;;53014;1250;1058864;-81
2024/01/20 15:58:51;;;;;;;;;;;;;;;;;;52974;1253;1005212;-80
2024/01/20 16:01:18;;;;;;;;;;;;;;;;;;53077;1252;1038561;-80
2024/01/20 16:03:45;;;;;;;;;;;;;;;;;;53088;1254;1004814;-80
2024/01/20 16:06:11;;;;;;;;;;;;;;;;;;52973;1254;1045387;-82
2024/01/20 16:08:38;;;;;;;;;;;;;;;;;;53002;1250;1005219;-81
2024/01/20 16:11:04;;;;;;;;;;;;;;;;;;53081;1251;1061885;-80
2024/01/20 16:13:31;;;;;;;;;;;;;;;;;;53056;1252;1004843;-82